sensor_id;sensor_type;location;lat;lon;timestamp;pressure;altitude;pressure_sealevel;temperature;humidity
32081;BME280;18593;51.426;7.030;2023-07-28T00:01:20;99501.53;;;17.84;100.00
32081;BME280;18593;51.426;7.030;2023-07-28T00:03:47;99500.97;;;17.87;99.97
32081;BME280;18593;51.426;7.030;2023-07-28T00:06:15;99497.47;;;17.86;99.90
32081;BME280;18593;51.426;7.030;2023-07-28T00:08:42;99497.22;;;17.83;100.00
32081;BME280;18593;51.426;7.030;2023-07-28T00:11:10;99501.03;;;17.82;100.00
32081;BME280;18593;51.426;7.030;2023-07-28T00:13:40;99504.53;;;17.82;100.00
32081;BME280;18593;51.426;7.030;2023-07-28T00:16:08;99505.03;;;17.84;100.00
32081;BME280;18593;51.426;7.030;2023-07-28T00:18:36;99503.94;;;17.85;99.75
32081;BME280;18593;51.426;7.030;2023-07-28T00:21:05;99493.94;;;17.86;100.00
32081;BME280;18593;51.426;7.030;2023-07-28T00:23:32;99501.50;;;17.89;100.00
32081;BME280;18593;51.426;7.030;2023-07-28T00:25:59;99504.19;;;17.89;99.96
32081;BME280;18593;51.426;7.030;2023-07-28T00:28:27;99504.19;;;17.89;100.00
32081;BME280;18593;51.426;7.030;2023-07-28T00:30:55;99500.13;;;17.91;99.73
32081;BME280;18593;51.426;7.030;2023-07-28T00:33:23;99493.66;;;17.92;99.37
32081;BME280;18593;51.426;7.030;2023-07-28T00:35:51;99491.75;;;17.93;99.20
32081;BME280;18593;51.426;7.030;2023-07-28T00:38:18;99493.66;;;17.92;99.23
32081;BME280;18593;51.426;7.030;2023-07-28T00:40:45;99496.34;;;17.92;99.25
32081;BME280;18593;51.426;7.030;2023-07-28T00:43:13;99482.56;;;17.94;98.90
32081;BME280;18593;51.426;7.030;2023-07-28T00:45:40;99495.75;;;17.95;99.10
32081;BME280;18593;51.426;7.030;2023-07-28T00:48:12;99493.59;;;17.97;98.75
32081;BME280;18593;51.426;7.030;2023-07-28T00:50:41;99494.09;;;17.99;98.45
32081;BME280;18593;51.426;7.030;2023-07-28T00:53:09;99482.81;;;17.97;98.48
32081;BME280;18593;51.426;7.030;2023-07-28T00:55:37;99481.47;;;17.95;98.53
32081;BME280;18593;51.426;7.030;2023-07-28T00:58:04;99487.44;;;17.92;99.21
32081;BME280;18593;51.426;7.030;2023-07-28T01:00:31;99496.91;;;17.89;99.63
32081;BME280;18593;51.426;7.030;2023-07-28T01:02:59;99491.22;;;17.91;99.54
32081;BME280;18593;51.426;7.030;2023-07-28T01:05:33;99500.69;;;17.88;99.76
32081;BME280;18593;51.426;7.030;2023-07-28T01:08:11;99493.69;;;17.87;100.00
32081;BME280;18593;51.426;7.030;2023-07-28T01:10:43;99491.50;;;17.89;100.00
32081;BME280;18593;51.426;7.030;2023-07-28T01:13:10;99489.34;;;17.91;99.89
32081;BME280;18593;51.426;7.030;2023-07-28T01:15:38;99490.16;;;17.92;99.79
32081;BME280;18593;51.426;7.030;2023-07-28T01:18:05;99487.72;;;17.90;99.63
32081;BME280;18593;51.426;7.030;2023-07-28T01:20:38;99488.81;;;17.89;100.00
32081;BME280;18593;51.426;7.030;2023-07-28T01:23:11;99499.31;;;17.91;100.00
32081;BME280;18593;51.426;7.030;2023-07-28T01:25:52;99487.66;;;17.95;99.56
32081;BME280;18593;51.426;7.030;2023-07-28T01:28:24;99496.06;;;17.94;99.27
32081;BME280;18593;51.426;7.030;2023-07-28T01:30:52;99488.50;;;17.96;99.33
32081;BME280;18593;51.426;7.030;2023-07-28T01:33:21;99496.28;;;17.97;98.93
32081;BME280;18593;51.426;7.030;2023-07-28T01:35:48;99493.34;;;17.94;98.75
32081;BME280;18593;51.426;7.030;2023-07-28T01:38:16;99489.56;;;17.95;99.00
32081;BME280;18593;51.426;7.030;2023-07-28T01:40:43;99484.97;;;17.95;99.33
32081;BME280;18593;51.426;7.030;2023-07-28T01:43:10;99488.75;;;17.94;99.64
32081;BME280;18593;51.426;7.030;2023-07-28T01:45:39;99480.91;;;17.98;99.29
32081;BME280;18593;51.426;7.030;2023-07-28T01:48:07;99490.38;;;17.95;99.40
32081;BME280;18593;51.426;7.030;2023-07-28T01:50:35;99490.09;;;17.97;99.22
32081;BME280;18593;51.426;7.030;2023-07-28T01:53:03;99492.00;;;17.96;99.47
32081;BME280;18593;51.426;7.030;2023-07-28T01:55:31;99492.00;;;17.96;99.04
32081;BME280;18593;51.426;7.030;2023-07-28T01:58:00;99492.25;;;17.95;99.24
32081;BME280;18593;51.426;7.030;2023-07-28T02:00:28;99491.19;;;17.96;99.58
32081;BME280;18593;51.426;7.030;2023-07-28T02:02:57;99496.00;;;17.99;99.29
32081;BME280;18593;51.426;7.030;2023-07-28T02:05:27;99487.16;;;17.93;100.00
32081;BME280;18593;51.426;7.030;2023-07-28T02:07:55;99486.31;;;17.98;99.73
32081;BME280;18593;51.426;7.030;2023-07-28T02:10:23;99484.69;;;17.97;99.38
32081;BME280;18593;51.426;7.030;2023-07-28T02:12:50;99480.09;;;17.97;99.51
32081;BME280;18593;51.426;7.030;2023-07-28T02:15:18;99489.56;;;17.95;99.73
32081;BME280;18593;51.426;7.030;2023-07-28T02:17:45;99493.06;;;17.95;100.00
32081;BME280;18593;51.426;7.030;2023-07-28T02:20:14;99492.78;;;17.97;99.80
32081;BME280;18593;51.426;7.030;2023-07-28T02:22:42;99490.31;;;18.00;99.53
32081;BME280;18593;51.426;7.030;2023-07-28T02:25:10;99489.50;;;18.00;98.95
32081;BME280;18593;51.426;7.030;2023-07-28T02:27:38;99494.34;;;18.03;98.88
32081;BME280;18593;51.426;7.030;2023-07-28T02:30:07;99497.56;;;18.05;98.50
32081;BME280;18593;51.426;7.030;2023-07-28T02:32:35;99501.09;;;18.06;98.39
32081;BME280;18593;51.426;7.030;2023-07-28T02:35:02;99504.34;;;18.02;99.16
32081;BME280;18593;51.426;7.030;2023-07-28T02:37:32;99503.25;;;18.04;98.87
32081;BME280;18593;51.426;7.030;2023-07-28T02:39:59;99505.66;;;18.05;98.71
32081;BME280;18593;51.426;7.030;2023-07-28T02:42:26;99505.66;;;18.05;98.98
32081;BME280;18593;51.426;7.030;2023-07-28T02:44:54;99505.16;;;18.03;99.19
32081;BME280;18593;51.426;7.030;2023-07-28T02:47:21;99513.75;;;18.05;98.81
32081;BME280;18593;51.426;7.030;2023-07-28T02:49:48;99516.19;;;18.07;98.53
32081;BME280;18593;51.426;7.030;2023-07-28T02:52:16;99521.28;;;18.08;98.17
32081;BME280;18593;51.426;7.030;2023-07-28T02:54:44;99509.97;;;18.06;98.52
32081;BME280;18593;51.426;7.030;2023-07-28T02:57:12;99515.66;;;18.05;99.20
32081;BME280;18593;51.426;7.030;2023-07-28T02:59:42;99523.75;;;18.05;99.01
32081;BME280;18593;51.426;7.030;2023-07-28T03:02:10;99526.44;;;18.05;99.42
32081;BME280;18593;51.426;7.030;2023-07-28T03:04:37;99523.19;;;18.08;99.05
32081;BME280;18593;51.426;7.030;2023-07-28T03:07:17;99521.28;;;18.08;98.94
32081;BME280;18593;51.426;7.030;2023-07-28T03:09:51;99524.28;;;18.07;98.92
32081;BME280;18593;51.426;7.030;2023-07-28T03:12:18;99528.34;;;18.04;99.94
32081;BME280;18593;51.426;7.030;2023-07-28T03:14:46;99536.72;;;18.02;100.00
32081;BME280;18593;51.426;7.030;2023-07-28T03:17:14;99528.63;;;18.02;100.00
32081;BME280;18593;51.426;7.030;2023-07-28T03:19:41;99532.94;;;18.04;99.89
32081;BME280;18593;51.426;7.030;2023-07-28T03:22:08;99527.53;;;18.04;100.00
32081;BME280;18593;51.426;7.030;2023-07-28T03:24:35;99530.22;;;18.04;100.00
32081;BME280;18593;51.426;7.030;2023-07-28T03:27:05;99533.72;;;18.04;100.00
32081;BME280;18593;51.426;7.030;2023-07-28T03:29:34;99532.63;;;18.05;99.83
32081;BME280;18593;51.426;7.030;2023-07-28T03:32:02;99518.88;;;18.07;100.00
32081;BME280;18593;51.426;7.030;2023-07-28T03:34:29;99527.25;;;18.05;99.74
32081;BME280;18593;51.426;7.030;2023-07-28T03:36:58;99528.88;;;18.06;99.90
32081;BME280;18593;51.426;7.030;2023-07-28T03:39:26;99542.06;;;18.08;99.41
32081;BME280;18593;51.426;7.030;2023-07-28T03:41:56;99529.88;;;18.10;99.20
32081;BME280;18593;51.426;7.030;2023-07-28T03:44:26;99534.22;;;18.11;98.92
32081;BME280;18593;51.426;7.030;2023-07-28T03:46:56;99542.03;;;18.13;98.71
32081;BME280;18593;51.426;7.030;2023-07-28T03:49:24;99543.63;;;18.14;98.88
32081;BME280;18593;51.426;7.030;2023-07-28T03:51:52;99542.53;;;18.15;98.48
32081;BME280;18593;51.426;7.030;2023-07-28T03:54:19;99539.56;;;18.16;98.21
32081;BME280;18593;51.426;7.030;2023-07-28T03:56:46;99547.94;;;18.15;98.93
32081;BME280;18593;51.426;7.030;2023-07-28T03:59:13;99548.72;;;18.15;98.62
32081;BME280;18593;51.426;7.030;2023-07-28T04:01:42;99550.38;;;18.16;98.30
32081;BME280;18593;51.426;7.030;2023-07-28T04:04:10;99551.16;;;18.17;98.37
32081;BME280;18593;51.426;7.030;2023-07-28T04:06:41;99552.47;;;18.19;98.45
32081;BME280;18593;51.426;7.030;2023-07-28T04:09:11;99551.16;;;18.17;98.36
32081;BME280;18593;51.426;7.030;2023-07-28T04:11:38;99548.47;;;18.17;98.33
32081;BME280;18593;51.426;7.030;2023-07-28T04:14:06;99550.88;;;18.18;98.63
32081;BME280;18593;51.426;7.030;2023-07-28T04:16:34;99545.78;;;18.17;98.85
32081;BME280;18593;51.426;7.030;2023-07-28T04:19:03;99543.59;;;18.19;98.93
32081;BME280;18593;51.426;7.030;2023-07-28T04:21:31;99543.59;;;18.19;98.94
32081;BME280;18593;51.426;7.030;2023-07-28T04:24:02;99552.22;;;18.21;98.84
32081;BME280;18593;51.426;7.030;2023-07-28T04:26:30;99550.59;;;18.20;98.85
32081;BME280;18593;51.426;7.030;2023-07-28T04:29:01;99548.47;;;18.17;99.67
32081;BME280;18593;51.426;7.030;2023-07-28T04:31:29;99554.38;;;18.19;99.31
32081;BME280;18593;51.426;7.030;2023-07-28T04:34:03;99551.69;;;18.19;99.61
32081;BME280;18593;51.426;7.030;2023-07-28T04:36:49;99544.38;;;18.19;100.00
32081;BME280;18593;51.426;7.030;2023-07-28T04:39:20;99550.31;;;18.21;99.94
32081;BME280;18593;51.426;7.030;2023-07-28T04:41:47;99553.81;;;18.22;100.00
32081;BME280;18593;51.426;7.030;2023-07-28T04:44:15;99558.94;;;18.23;100.00
32081;BME280;18593;51.426;7.030;2023-07-28T04:46:43;99567.28;;;18.27;99.60
32081;BME280;18593;51.426;7.030;2023-07-28T04:49:15;99559.16;;;18.27;99.32
32081;BME280;18593;51.426;7.030;2023-07-28T04:52:12;99563.47;;;18.28;98.78
32081;BME280;18593;51.426;7.030;2023-07-28T04:55:02;99561.88;;;18.27;98.99
32081;BME280;18593;51.426;7.030;2023-07-28T04:57:31;99560.78;;;18.28;99.45
32081;BME280;18593;51.426;7.030;2023-07-28T04:59:58;99557.28;;;18.27;99.71
32081;BME280;18593;51.426;7.030;2023-07-28T05:02:25;99566.72;;;18.30;99.98
32081;BME280;18593;51.426;7.030;2023-07-28T05:04:54;99559.69;;;18.29;99.93
32081;BME280;18593;51.426;7.030;2023-07-28T05:07:22;99560.78;;;18.28;100.00
32081;BME280;18593;51.426;7.030;2023-07-28T05:09:49;99565.06;;;18.29;99.60
32081;BME280;18593;51.426;7.030;2023-07-28T05:12:17;99567.22;;;18.32;99.67
32081;BME280;18593;51.426;7.030;2023-07-28T05:14:47;99568.81;;;18.33;100.00
32081;BME280;18593;51.426;7.030;2023-07-28T05:17:18;99566.38;;;18.37;100.00
32081;BME280;18593;51.426;7.030;2023-07-28T05:20:23;99565.28;;;18.38;100.00
32081;BME280;18593;51.426;7.030;2023-07-28T05:22:55;99579.06;;;18.36;100.00
32081;BME280;18593;51.426;7.030;2023-07-28T05:25:26;99572.31;;;18.34;100.00
32081;BME280;18593;51.426;7.030;2023-07-28T05:27:54;99570.16;;;18.36;100.00
32081;BME280;18593;51.426;7.030;2023-07-28T05:30:22;99572.28;;;18.39;100.00
32081;BME280;18593;51.426;7.030;2023-07-28T05:32:49;99577.66;;;18.39;100.00
32081;BME280;18593;51.426;7.030;2023-07-28T05:35:36;99575.78;;;18.39;100.00
32081;BME280;18593;51.426;7.030;2023-07-28T05:38:03;99574.72;;;18.40;100.00
32081;BME280;18593;51.426;7.030;2023-07-28T05:40:32;99584.16;;;18.38;100.00
32081;BME280;18593;51.426;7.030;2023-07-28T05:42:59;99579.56;;;18.38;100.00
32081;BME280;18593;51.426;7.030;2023-07-28T05:45:26;99578.47;;;18.39;100.00
32081;BME280;18593;51.426;7.030;2023-07-28T05:47:54;99591.41;;;18.42;100.00
32081;BME280;18593;51.426;7.030;2023-07-28T05:50:21;99585.47;;;18.45;100.00
32081;BME280;18593;51.426;7.030;2023-07-28T05:52:50;99595.69;;;18.48;100.00
32081;BME280;18593;51.426;7.030;2023-07-28T05:55:17;99600.28;;;18.48;100.00
32081;BME280;18593;51.426;7.030;2023-07-28T05:57:44;99606.47;;;18.48;100.00
32081;BME280;18593;51.426;7.030;2023-07-28T06:00:13;99609.19;;;18.48;100.00
32081;BME280;18593;51.426;7.030;2023-07-28T06:02:40;99608.38;;;18.48;100.00
32081;BME280;18593;51.426;7.030;2023-07-28T06:05:12;99605.66;;;18.48;100.00
32081;BME280;18593;51.426;7.030;2023-07-28T06:07:39;99608.66;;;18.46;100.00
32081;BME280;18593;51.426;7.030;2023-07-28T06:10:09;99621.38;;;18.46;100.00
32081;BME280;18593;51.426;7.030;2023-07-28T06:12:36;99607.88;;;18.46;100.00
32081;BME280;18593;51.426;7.030;2023-07-28T06:15:05;99615.38;;;18.49;100.00
32081;BME280;18593;51.426;7.030;2023-07-28T06:17:35;99619.94;;;18.53;100.00
32081;BME280;18593;51.426;7.030;2023-07-28T06:20:03;99623.44;;;18.54;100.00
32081;BME280;18593;51.426;7.030;2023-07-28T06:22:30;99622.91;;;18.52;100.00
32081;BME280;18593;51.426;7.030;2023-07-28T06:24:58;99629.13;;;18.52;100.00
32081;BME280;18593;51.426;7.030;2023-07-28T06:27:27;99636.72;;;18.50;100.00
32081;BME280;18593;51.426;7.030;2023-07-28T06:29:54;99634.00;;;18.50;100.00
32081;BME280;18593;51.426;7.030;2023-07-28T06:32:21;99636.72;;;18.50;100.00
32081;BME280;18593;51.426;7.030;2023-07-28T06:34:50;99638.63;;;18.50;100.00
32081;BME280;18593;51.426;7.030;2023-07-28T06:37:17;99635.09;;;18.49;100.00
32081;BME280;18593;51.426;7.030;2023-07-28T06:39:45;99642.91;;;18.51;100.00
32081;BME280;18593;51.426;7.030;2023-07-28T06:42:12;99643.97;;;18.55;100.00
32081;BME280;18593;51.426;7.030;2023-07-28T06:44:41;99641.78;;;18.57;100.00
32081;BME280;18593;51.426;7.030;2023-07-28T06:47:08;99643.38;;;18.58;100.00
32081;BME280;18593;51.426;7.030;2023-07-28T06:49:36;99651.47;;;18.58;100.00
32081;BME280;18593;51.426;7.030;2023-07-28T06:52:04;99644.19;;;18.59;100.00
32081;BME280;18593;51.426;7.030;2023-07-28T06:54:32;99647.41;;;18.61;100.00
32081;BME280;18593;51.426;7.030;2023-07-28T06:56:59;99647.41;;;18.61;100.00
32081;BME280;18593;51.426;7.030;2023-07-28T06:59:26;99657.44;;;18.60;100.00
32081;BME280;18593;51.426;7.030;2023-07-28T07:01:56;99663.34;;;18.62;100.00
32081;BME280;18593;51.426;7.030;2023-07-28T07:04:23;99658.72;;;18.63;100.00
32081;BME280;18593;51.426;7.030;2023-07-28T07:06:50;99660.34;;;18.64;100.00
32081;BME280;18593;51.426;7.030;2023-07-28T07:09:17;99653.06;;;18.64;100.00
32081;BME280;18593;51.426;7.030;2023-07-28T07:11:46;99662.47;;;18.67;100.00
32081;BME280;18593;51.426;7.030;2023-07-28T07:14:13;99658.44;;;18.69;100.00
32081;BME280;18593;51.426;7.030;2023-07-28T07:16:41;99671.38;;;18.72;100.00
32081;BME280;18593;51.426;7.030;2023-07-28T07:19:10;99666.78;;;18.73;100.00
32081;BME280;18593;51.426;7.030;2023-07-28T07:21:37;99671.63;;;18.76;100.00
32081;BME280;18593;51.426;7.030;2023-07-28T07:24:05;99672.72;;;18.75;100.00
32081;BME280;18593;51.426;7.030;2023-07-28T07:26:33;99679.72;;;18.76;100.00
32081;BME280;18593;51.426;7.030;2023-07-28T07:29:00;99679.72;;;18.76;100.00
32081;BME280;18593;51.426;7.030;2023-07-28T07:31:28;99679.16;;;18.79;100.00
32081;BME280;18593;51.426;7.030;2023-07-28T07:33:56;99676.16;;;18.81;100.00
32081;BME280;18593;51.426;7.030;2023-07-28T07:36:24;99681.03;;;18.78;100.00
32081;BME280;18593;51.426;7.030;2023-07-28T07:38:52;99681.88;;;18.79;100.00
32081;BME280;18593;51.426;7.030;2023-07-28T07:41:22;99681.88;;;18.79;100.00
32081;BME280;18593;51.426;7.030;2023-07-28T07:43:53;99685.59;;;18.83;100.00
32081;BME280;18593;51.426;7.030;2023-07-28T07:46:21;99689.91;;;18.84;100.00
32081;BME280;18593;51.426;7.030;2023-07-28T07:48:48;99686.94;;;18.86;100.00
32081;BME280;18593;51.426;7.030;2023-07-28T07:51:16;99689.34;;;18.87;100.00
32081;BME280;18593;51.426;7.030;2023-07-28T07:53:45;99687.13;;;18.94;100.00
32081;BME280;18593;51.426;7.030;2023-07-28T07:56:13;99689.75;;;18.99;100.00
32081;BME280;18593;51.426;7.030;2023-07-28T07:58:40;99689.47;;;19.01;100.00
32081;BME280;18593;51.426;7.030;2023-07-28T08:01:07;99686.22;;;19.04;100.00
32081;BME280;18593;51.426;7.030;2023-07-28T08:03:35;99695.34;;;19.08;100.00
32081;BME280;18593;51.426;7.030;2023-07-28T08:06:03;99688.63;;;19.06;100.00
32081;BME280;18593;51.426;7.030;2023-07-28T08:08:31;99693.72;;;19.07;100.00
32081;BME280;18593;51.426;7.030;2023-07-28T08:11:00;99700.72;;;19.13;100.00
32081;BME280;18593;51.426;7.030;2023-07-28T08:13:28;99687.69;;;19.15;100.00
32081;BME280;18593;51.426;7.030;2023-07-28T08:15:55;99696.91;;;19.14;100.00
32081;BME280;18593;51.426;7.030;2023-07-28T08:18:22;99698.22;;;19.17;100.00
32081;BME280;18593;51.426;7.030;2023-07-28T08:20:50;99700.13;;;19.16;100.00
32081;BME280;18593;51.426;7.030;2023-07-28T08:23:17;99698.22;;;19.17;100.00
32081;BME280;18593;51.426;7.030;2023-07-28T08:25:45;99706.06;;;19.18;100.00
32081;BME280;18593;51.426;7.030;2023-07-28T08:28:13;99706.56;;;19.20;100.00
32081;BME280;18593;51.426;7.030;2023-07-28T08:30:41;99706.28;;;19.22;100.00
32081;BME280;18593;51.426;7.030;2023-07-28T08:33:08;99712.47;;;19.22;100.00
32081;BME280;18593;51.426;7.030;2023-07-28T08:35:35;99717.09;;;19.22;100.00
32081;BME280;18593;51.426;7.030;2023-07-28T08:38:03;99712.78;;;19.21;100.00
32081;BME280;18593;51.426;7.030;2023-07-28T08:40:30;99719.53;;;19.23;100.00
32081;BME280;18593;51.426;7.030;2023-07-28T08:42:58;99725.72;;;19.24;100.00
32081;BME280;18593;51.426;7.030;2023-07-28T08:45:26;99720.03;;;19.25;100.00
32081;BME280;18593;51.426;7.030;2023-07-28T08:47:54;99723.03;;;19.24;100.00
32081;BME280;18593;51.426;7.030;2023-07-28T08:50:22;99726.25;;;19.26;100.00
32081;BME280;18593;51.426;7.030;2023-07-28T08:52:49;99732.38;;;19.32;100.00
32081;BME280;18593;51.426;7.030;2023-07-28T08:55:17;99734.53;;;19.35;100.00
32081;BME280;18593;51.426;7.030;2023-07-28T08:57:44;99732.56;;;19.40;100.00
32081;BME280;18593;51.426;7.030;2023-07-28T09:00:13;99740.34;;;19.47;100.00
32081;BME280;18593;51.426;7.030;2023-07-28T09:02:42;99738.72;;;19.46;100.00
32081;BME280;18593;51.426;7.030;2023-07-28T09:05:18;99734.13;;;19.46;100.00
32081;BME280;18593;51.426;7.030;2023-07-28T09:07:47;99740.56;;;19.50;100.00
32081;BME280;18593;51.426;7.030;2023-07-28T09:10:14;99739.72;;;19.55;100.00
32081;BME280;18593;51.426;7.030;2023-07-28T09:12:48;99731.16;;;19.72;100.00
32081;BME280;18593;51.426;7.030;2023-07-28T09:15:15;99738.97;;;19.73;100.00
32081;BME280;18593;51.426;7.030;2023-07-28T09:17:45;99739.16;;;19.82;100.00
32081;BME280;18593;51.426;7.030;2023-07-28T09:20:14;99743.09;;;19.90;100.00
32081;BME280;18593;51.426;7.030;2023-07-28T09:22:42;99741.13;;;19.95;100.00
32081;BME280;18593;51.426;7.030;2023-07-28T09:25:15;99735.78;;;19.90;100.00
32081;BME280;18593;51.426;7.030;2023-07-28T09:27:50;99735.50;;;19.92;100.00
32081;BME280;18593;51.426;7.030;2023-07-28T09:30:17;99736.56;;;19.91;100.00
32081;BME280;18593;51.426;7.030;2023-07-28T09:32:49;99742.69;;;20.01;100.00
32081;BME280;18593;51.426;7.030;2023-07-28T09:35:17;99742.09;;;20.04;100.00
32081;BME280;18593;51.426;7.030;2023-07-28T09:37:46;99740.97;;;20.05;100.00
32081;BME280;18593;51.426;7.030;2023-07-28T09:40:16;99736.25;;;20.16;100.00
32081;BME280;18593;51.426;7.030;2023-07-28T09:42:46;99743.56;;;20.16;100.00
32081;BME280;18593;51.426;7.030;2023-07-28T09:45:17;99735.44;;;20.16;100.00
32081;BME280;18593;51.426;7.030;2023-07-28T09:47:46;99734.91;;;20.32;100.00
32081;BME280;18593;51.426;7.030;2023-07-28T09:50:17;99728.75;;;20.46;100.00
32081;BME280;18593;51.426;7.030;2023-07-28T09:52:46;99739.38;;;20.42;100.00
32081;BME280;18593;51.426;7.030;2023-07-28T09:55:13;99740.97;;;20.43;100.00
32081;BME280;18593;51.426;7.030;2023-07-28T09:57:46;99744.56;;;20.39;100.00
32081;BME280;18593;51.426;7.030;2023-07-28T10:00:15;99749.78;;;20.35;100.00
32081;BME280;18593;51.426;7.030;2023-07-28T10:02:46;99749.34;;;20.28;100.00
32081;BME280;18593;51.426;7.030;2023-07-28T10:05:16;99755.94;;;20.22;100.00
32081;BME280;18593;51.426;7.030;2023-07-28T10:07:45;99760.53;;;20.21;100.00
32081;BME280;18593;51.426;7.030;2023-07-28T10:10:14;99761.34;;;20.22;100.00
32081;BME280;18593;51.426;7.030;2023-07-28T10:12:46;99764.28;;;20.25;100.00
32081;BME280;18593;51.426;7.030;2023-07-28T10:15:14;99761.34;;;20.22;100.00
32081;BME280;18593;51.426;7.030;2023-07-28T10:17:47;99761.69;;;20.15;100.00
32081;BME280;18593;51.426;7.030;2023-07-28T10:20:31;99772.03;;;20.13;100.00
32081;BME280;18593;51.426;7.030;2023-07-28T10:23:11;99764.69;;;20.14;100.00
32081;BME280;18593;51.426;7.030;2023-07-28T10:25:40;99759.28;;;20.14;100.00
32081;BME280;18593;51.426;7.030;2023-07-28T10:28:26;99765.34;;;20.24;100.00
32081;BME280;18593;51.426;7.030;2023-07-28T10:30:55;99765.00;;;20.31;100.00
32081;BME280;18593;51.426;7.030;2023-07-28T10:33:33;99767.03;;;20.39;100.00
32081;BME280;18593;51.426;7.030;2023-07-28T10:36:13;99771.03;;;20.47;100.00
32081;BME280;18593;51.426;7.030;2023-07-28T10:38:41;99761.72;;;20.53;100.00
32081;BME280;18593;51.426;7.030;2023-07-28T10:41:14;99764.66;;;20.56;100.00
32081;BME280;18593;51.426;7.030;2023-07-28T10:43:42;99768.97;;;20.57;100.00
32081;BME280;18593;51.426;7.030;2023-07-28T10:46:14;99772.56;;;20.53;100.00
32081;BME280;18593;51.426;7.030;2023-07-28T10:48:43;99779.97;;;20.47;100.00
32081;BME280;18593;51.426;7.030;2023-07-28T10:51:15;99768.06;;;20.43;100.00
32081;BME280;18593;51.426;7.030;2023-07-28T10:53:49;99772.69;;;20.43;100.00
32081;BME280;18593;51.426;7.030;2023-07-28T10:56:17;99770.72;;;20.48;100.00
32081;BME280;18593;51.426;7.030;2023-07-28T10:58:44;99758.94;;;20.58;100.00
32081;BME280;18593;51.426;7.030;2023-07-28T11:01:12;99759.72;;;20.77;100.00
32081;BME280;18593;51.426;7.030;2023-07-28T11:03:41;99768.38;;;20.93;100.00
32081;BME280;18593;51.426;7.030;2023-07-28T11:06:09;99762.69;;;20.95;100.00
32081;BME280;18593;51.426;7.030;2023-07-28T11:08:37;99766.69;;;20.97;99.48
32081;BME280;18593;51.426;7.030;2023-07-28T11:11:05;99756.38;;;20.99;98.21
32081;BME280;18593;51.426;7.030;2023-07-28T11:13:33;99769.53;;;21.06;98.87
32081;BME280;18593;51.426;7.030;2023-07-28T11:16:00;99767.63;;;21.06;97.88
32081;BME280;18593;51.426;7.030;2023-07-28T11:18:28;99772.81;;;21.03;97.74
32081;BME280;18593;51.426;7.030;2023-07-28T11:20:55;99761.78;;;20.99;97.30
32081;BME280;18593;51.426;7.030;2023-07-28T11:23:23;99755.94;;;20.92;97.74
32081;BME280;18593;51.426;7.030;2023-07-28T11:25:52;99761.88;;;20.94;97.34
32081;BME280;18593;51.426;7.030;2023-07-28T11:28:20;99762.59;;;21.00;96.96
32081;BME280;18593;51.426;7.030;2023-07-28T11:30:48;99763.44;;;21.14;98.97
32081;BME280;18593;51.426;7.030;2023-07-28T11:33:15;99757.22;;;21.14;95.13
32081;BME280;18593;51.426;7.030;2023-07-28T11:35:44;99759.03;;;21.18;94.10
32081;BME280;18593;51.426;7.030;2023-07-28T11:38:13;99753.69;;;21.27;96.01
32081;BME280;18593;51.426;7.030;2023-07-28T11:40:41;99754.50;;;21.27;93.24
32081;BME280;18593;51.426;7.030;2023-07-28T11:43:10;99764.78;;;21.30;93.08
32081;BME280;18593;51.426;7.030;2023-07-28T11:45:38;99766.91;;;21.33;94.33
32081;BME280;18593;51.426;7.030;2023-07-28T11:48:06;99758.31;;;21.26;93.04
32081;BME280;18593;51.426;7.030;2023-07-28T11:50:39;99767.16;;;21.18;94.28
32081;BME280;18593;51.426;7.030;2023-07-28T11:53:09;99775.75;;;21.06;92.63
32081;BME280;18593;51.426;7.030;2023-07-28T11:55:38;99768.59;;;20.97;94.44
32081;BME280;18593;51.426;7.030;2023-07-28T11:58:06;99779.84;;;20.90;96.37
32081;BME280;18593;51.426;7.030;2023-07-28T12:00:38;99778.31;;;20.84;98.59
32081;BME280;18593;51.426;7.030;2023-07-28T12:03:10;99779.94;;;20.85;100.00
32081;BME280;18593;51.426;7.030;2023-07-28T12:05:39;99779.94;;;20.85;100.00
32081;BME280;18593;51.426;7.030;2023-07-28T12:08:07;99772.91;;;20.84;100.00
32081;BME280;18593;51.426;7.030;2023-07-28T12:10:34;99776.31;;;20.90;100.00
32081;BME280;18593;51.426;7.030;2023-07-28T12:13:06;99774.53;;;20.99;100.00
32081;BME280;18593;51.426;7.030;2023-07-28T12:15:40;99761.63;;;21.09;100.00
32081;BME280;18593;51.426;7.030;2023-07-28T12:18:10;99759.38;;;21.12;100.00
32081;BME280;18593;51.426;7.030;2023-07-28T12:20:41;99748.44;;;21.17;100.00
32081;BME280;18593;51.426;7.030;2023-07-28T12:23:13;99753.38;;;21.15;100.00
32081;BME280;18593;51.426;7.030;2023-07-28T12:25:41;99753.38;;;21.15;100.00
32081;BME280;18593;51.426;7.030;2023-07-28T12:28:10;99750.28;;;21.21;100.00
32081;BME280;18593;51.426;7.030;2023-07-28T12:30:39;99756.72;;;21.25;100.00
32081;BME280;18593;51.426;7.030;2023-07-28T12:33:07;99756.34;;;21.32;100.00
32081;BME280;18593;51.426;7.030;2023-07-28T12:35:34;99763.78;;;21.40;100.00
32081;BME280;18593;51.426;7.030;2023-07-28T12:38:03;99756.97;;;21.43;100.00
32081;BME280;18593;51.426;7.030;2023-07-28T12:40:32;99753.16;;;21.44;100.00
32081;BME280;18593;51.426;7.030;2023-07-28T12:43:02;99757.34;;;21.50;100.00
32081;BME280;18593;51.426;7.030;2023-07-28T12:45:30;99769.00;;;21.50;100.00
32081;BME280;18593;51.426;7.030;2023-07-28T12:47:59;99755.97;;;21.52;100.00
32081;BME280;18593;51.426;7.030;2023-07-28T12:50:27;99758.69;;;21.52;100.00
32081;BME280;18593;51.426;7.030;2023-07-28T12:52:54;99763.78;;;21.54;100.00
32081;BME280;18593;51.426;7.030;2023-07-28T12:55:21;99762.47;;;21.51;100.00
32081;BME280;18593;51.426;7.030;2023-07-28T12:57:48;99754.66;;;21.50;100.00
32081;BME280;18593;51.426;7.030;2023-07-28T13:00:16;99763.28;;;21.52;100.00
32081;BME280;18593;51.426;7.030;2023-07-28T13:02:44;99757.66;;;21.48;100.00
32081;BME280;18593;51.426;7.030;2023-07-28T13:05:13;99760.75;;;21.42;99.17